sensor_id;sensor_type;location;lat;lon;timestamp;pressure;altitude;pressure_sealevel;temperature;humidity
38780;BME280;29273;49.962;9.768;2024-03-08T00:01:30;100002.94;;;7.59;42.84
38780;BME280;29273;49.962;9.768;2024-03-08T00:03:56;99993.13;;;7.53;43.12
38780;BME280;29273;49.962;9.768;2024-03-08T00:06:21;99998.75;;;7.50;43.40
38780;BME280;29273;49.962;9.768;2024-03-08T00:08:47;99993.03;;;7.46;43.43
38780;BME280;29273;49.962;9.768;2024-03-08T00:11:13;99996.34;;;7.40;43.49
38780;BME280;29273;49.962;9.768;2024-03-08T00:13:38;99994.88;;;7.37;43.75
38780;BME280;29273;49.962;9.768;2024-03-08T00:16:04;99995.22;;;7.34;43.71
38780;BME280;29273;49.962;9.768;2024-03-08T00:18:29;99989.50;;;7.31;43.67
38780;BME280;29273;49.962;9.768;2024-03-08T00:20:55;99995.09;;;7.28;43.75
38780;BME280;29273;49.962;9.768;2024-03-08T00:23:21;100000.56;;;7.26;43.85
38780;BME280;29273;49.962;9.768;2024-03-08T00:25:46;100000.94;;;7.23;43.75
38780;BME280;29273;49.962;9.768;2024-03-08T00:28:12;99998.63;;;7.20;43.90
38780;BME280;29273;49.962;9.768;2024-03-08T00:30:40;100002.25;;;7.19;43.91
38780;BME280;29273;49.962;9.768;2024-03-08T00:33:05;99995.53;;;7.16;44.03
38780;BME280;29273;49.962;9.768;2024-03-08T00:35:31;99991.44;;;7.14;44.03
38780;BME280;29273;49.962;9.768;2024-03-08T00:37:56;99988.31;;;7.10;44.04
38780;BME280;29273;49.962;9.768;2024-03-08T00:40:22;99986.69;;;7.09;44.06
38780;BME280;29273;49.962;9.768;2024-03-08T00:42:48;99978.47;;;7.04;43.95
38780;BME280;29273;49.962;9.768;2024-03-08T00:45:13;99981.28;;;7.02;43.78
38780;BME280;29273;49.962;9.768;2024-03-08T00:47:39;99983.44;;;6.99;44.09
38780;BME280;29273;49.962;9.768;2024-03-08T00:50:04;99982.00;;;6.96;44.26
38780;BME280;29273;49.962;9.768;2024-03-08T00:52:30;99978.06;;;6.92;44.19
38780;BME280;29273;49.962;9.768;2024-03-08T00:54:55;99973.97;;;6.90;44.23
38780;BME280;29273;49.962;9.768;2024-03-08T00:57:21;99971.69;;;6.87;44.16
38780;BME280;29273;49.962;9.768;2024-03-08T00:59:47;99978.09;;;6.84;44.33
38780;BME280;29273;49.962;9.768;2024-03-08T01:02:13;99977.63;;;6.80;44.34
38780;BME280;29273;49.962;9.768;2024-03-08T01:04:39;99977.00;;;6.78;44.57
38780;BME280;29273;49.962;9.768;2024-03-08T01:07:04;99975.69;;;6.74;44.47
38780;BME280;29273;49.962;9.768;2024-03-08T01:09:31;99975.03;;;6.72;44.62
38780;BME280;29273;49.962;9.768;2024-03-08T01:11:57;99963.22;;;6.68;44.39
38780;BME280;29273;49.962;9.768;2024-03-08T01:14:23;99963.41;;;6.66;44.51
38780;BME280;29273;49.962;9.768;2024-03-08T01:16:49;99957.50;;;6.64;44.61
38780;BME280;29273;49.962;9.768;2024-03-08T01:19:15;99958.81;;;6.60;44.92
38780;BME280;29273;49.962;9.768;2024-03-08T01:21:41;99953.91;;;6.57;44.71
38780;BME280;29273;49.962;9.768;2024-03-08T01:24:07;99955.25;;;6.53;44.65
38780;BME280;29273;49.962;9.768;2024-03-08T01:26:32;99946.88;;;6.50;44.65
38780;BME280;29273;49.962;9.768;2024-03-08T01:29:00;99948.03;;;6.47;44.78
38780;BME280;29273;49.962;9.768;2024-03-08T01:31:25;99940.47;;;6.44;44.80
38780;BME280;29273;49.962;9.768;2024-03-08T01:33:51;99936.38;;;6.41;44.99
38780;BME280;29273;49.962;9.768;2024-03-08T01:36:16;99940.16;;;6.39;45.23
38780;BME280;29273;49.962;9.768;2024-03-08T01:38:44;99925.56;;;6.36;45.09
38780;BME280;29273;49.962;9.768;2024-03-08T01:41:10;99926.88;;;6.32;45.03
38780;BME280;29273;49.962;9.768;2024-03-08T01:43:35;99920.34;;;6.28;44.85
38780;BME280;29273;49.962;9.768;2024-03-08T01:46:01;99922.28;;;6.26;45.26
38780;BME280;29273;49.962;9.768;2024-03-08T01:48:30;99918.50;;;6.28;45.15
38780;BME280;29273;49.962;9.768;2024-03-08T01:50:58;99916.56;;;6.22;45.39
38780;BME280;29273;49.962;9.768;2024-03-08T01:53:24;99911.63;;;6.19;45.45
38780;BME280;29273;49.962;9.768;2024-03-08T01:55:54;99918.53;;;6.20;45.23
38780;BME280;29273;49.962;9.768;2024-03-08T01:58:22;99914.63;;;6.16;45.47
38780;BME280;29273;49.962;9.768;2024-03-08T02:00:48;99911.66;;;6.11;45.55
38780;BME280;29273;49.962;9.768;2024-03-08T02:03:16;99902.31;;;6.08;45.65
38780;BME280;29273;49.962;9.768;2024-03-08T02:05:42;99898.22;;;6.06;45.47
38780;BME280;29273;49.962;9.768;2024-03-08T02:08:09;99901.16;;;6.03;45.41
38780;BME280;29273;49.962;9.768;2024-03-08T02:10:40;99894.28;;;6.02;45.54
38780;BME280;29273;49.962;9.768;2024-03-08T02:13:07;99896.44;;;5.98;45.51
38780;BME280;29273;49.962;9.768;2024-03-08T02:15:52;99893.16;;;5.96;45.15
38780;BME280;29273;49.962;9.768;2024-03-08T02:18:18;99891.81;;;5.92;45.57
38780;BME280;29273;49.962;9.768;2024-03-08T02:20:47;99885.91;;;5.90;45.69
38780;BME280;29273;49.962;9.768;2024-03-08T02:23:14;99886.09;;;5.88;45.71
38780;BME280;29273;49.962;9.768;2024-03-08T02:25:40;99890.69;;;5.86;45.83
38780;BME280;29273;49.962;9.768;2024-03-08T02:28:09;99893.66;;;5.83;45.80
38780;BME280;29273;49.962;9.768;2024-03-08T02:30:35;99893.81;;;5.82;45.75
38780;BME280;29273;49.962;9.768;2024-03-08T02:33:01;99885.31;;;5.80;45.83
38780;BME280;29273;49.962;9.768;2024-03-08T02:35:26;99879.38;;;5.78;45.94
38780;BME280;29273;49.962;9.768;2024-03-08T02:37:52;99876.91;;;5.76;45.71
38780;BME280;29273;49.962;9.768;2024-03-08T02:40:17;99878.09;;;5.73;46.03
38780;BME280;29273;49.962;9.768;2024-03-08T02:42:43;99880.88;;;5.72;45.90
38780;BME280;29273;49.962;9.768;2024-03-08T02:45:08;99877.59;;;5.70;46.05
38780;BME280;29273;49.962;9.768;2024-03-08T02:47:35;99882.00;;;5.69;46.14
38780;BME280;29273;49.962;9.768;2024-03-08T02:50:01;99881.53;;;5.66;45.98
38780;BME280;29273;49.962;9.768;2024-03-08T02:52:27;99873.81;;;5.64;46.08
38780;BME280;29273;49.962;9.768;2024-03-08T02:54:52;99872.38;;;5.62;46.32
38780;BME280;29273;49.962;9.768;2024-03-08T02:57:18;99868.41;;;5.57;46.24
38780;BME280;29273;49.962;9.768;2024-03-08T02:59:43;99868.56;;;5.56;46.24
38780;BME280;29273;49.962;9.768;2024-03-08T03:02:09;99861.22;;;5.51;46.46
38780;BME280;29273;49.962;9.768;2024-03-08T03:04:35;99859.56;;;5.50;46.27
38780;BME280;29273;49.962;9.768;2024-03-08T03:07:01;99862.69;;;5.46;46.34
38780;BME280;29273;49.962;9.768;2024-03-08T03:09:26;99858.78;;;5.42;46.19
38780;BME280;29273;49.962;9.768;2024-03-08T03:11:53;99857.13;;;5.41;46.35
38780;BME280;29273;49.962;9.768;2024-03-08T03:14:21;99853.03;;;5.38;46.38
38780;BME280;29273;49.962;9.768;2024-03-08T03:16:47;99847.28;;;5.34;46.67
38780;BME280;29273;49.962;9.768;2024-03-08T03:19:12;99853.69;;;5.32;46.60
38780;BME280;29273;49.962;9.768;2024-03-08T03:21:38;99851.22;;;5.30;46.62
38780;BME280;29273;49.962;9.768;2024-03-08T03:24:04;99849.41;;;5.31;46.60
38780;BME280;29273;49.962;9.768;2024-03-08T03:26:36;99845.16;;;5.30;46.60
38780;BME280;29273;49.962;9.768;2024-03-08T03:29:05;99844.34;;;5.29;46.63
38780;BME280;29273;49.962;9.768;2024-03-08T03:31:31;99837.47;;;5.28;46.72
38780;BME280;29273;49.962;9.768;2024-03-08T03:33:57;99837.47;;;5.28;46.86
38780;BME280;29273;49.962;9.768;2024-03-08T03:36:27;99838.44;;;5.27;46.66
38780;BME280;29273;49.962;9.768;2024-03-08T03:38:56;99834.19;;;5.26;46.79
38780;BME280;29273;49.962;9.768;2024-03-08T03:41:30;99830.88;;;5.24;46.71
38780;BME280;29273;49.962;9.768;2024-03-08T03:43:56;99827.59;;;5.22;46.66
38780;BME280;29273;49.962;9.768;2024-03-08T03:46:21;99826.97;;;5.20;46.78
38780;BME280;29273;49.962;9.768;2024-03-08T03:48:47;99830.72;;;5.17;46.66
38780;BME280;29273;49.962;9.768;2024-03-08T03:51:12;99834.19;;;5.18;46.97
38780;BME280;29273;49.962;9.768;2024-03-08T03:53:40;99828.25;;;5.16;46.98
38780;BME280;29273;49.962;9.768;2024-03-08T03:56:06;99833.69;;;5.14;47.09
38780;BME280;29273;49.962;9.768;2024-03-08T03:58:32;99830.25;;;5.14;47.01
38780;BME280;29273;49.962;9.768;2024-03-08T04:00:58;99819.09;;;5.12;47.08
38780;BME280;29273;49.962;9.768;2024-03-08T04:03:23;99819.25;;;5.10;46.97
38780;BME280;29273;49.962;9.768;2024-03-08T04:05:49;99827.28;;;5.09;47.00
38780;BME280;29273;49.962;9.768;2024-03-08T04:08:14;99824.84;;;5.07;47.08
38780;BME280;29273;49.962;9.768;2024-03-08T04:10:40;99820.75;;;5.05;47.17
38780;BME280;29273;49.962;9.768;2024-03-08T04:13:07;99820.06;;;5.03;47.17
38780;BME280;29273;49.962;9.768;2024-03-08T04:15:32;99827.13;;;5.02;47.15
38780;BME280;29273;49.962;9.768;2024-03-08T04:17:59;99823.69;;;5.02;47.22
38780;BME280;29273;49.962;9.768;2024-03-08T04:20:25;99817.78;;;4.99;47.37
38780;BME280;29273;49.962;9.768;2024-03-08T04:22:51;99820.41;;;4.99;47.34
38780;BME280;29273;49.962;9.768;2024-03-08T04:25:17;99822.22;;;4.99;47.35
38780;BME280;29273;49.962;9.768;2024-03-08T04:27:42;99808.75;;;4.94;47.66
38780;BME280;29273;49.962;9.768;2024-03-08T04:30:08;99817.44;;;4.94;47.42
38780;BME280;29273;49.962;9.768;2024-03-08T04:32:34;99815.00;;;4.93;47.35
38780;BME280;29273;49.962;9.768;2024-03-08T04:35:00;99808.28;;;4.90;47.26
38780;BME280;29273;49.962;9.768;2024-03-08T04:37:28;99803.03;;;4.90;47.21
38780;BME280;29273;49.962;9.768;2024-03-08T04:39:57;99804.16;;;4.88;47.42
38780;BME280;29273;49.962;9.768;2024-03-08T04:42:23;99809.56;;;4.86;47.45
38780;BME280;29273;49.962;9.768;2024-03-08T04:44:49;99804.53;;;4.85;47.53
38780;BME280;29273;49.962;9.768;2024-03-08T04:47:14;99796.13;;;4.81;47.52
38780;BME280;29273;49.962;9.768;2024-03-08T04:49:41;99799.75;;;4.80;47.42
38780;BME280;29273;49.962;9.768;2024-03-08T04:52:06;99796.47;;;4.78;47.51
38780;BME280;29273;49.962;9.768;2024-03-08T04:54:32;99801.91;;;4.76;47.67
38780;BME280;29273;49.962;9.768;2024-03-08T04:56:58;99803.84;;;4.74;48.10
38780;BME280;29273;49.962;9.768;2024-03-08T04:59:26;99800.41;;;4.74;47.96
38780;BME280;29273;49.962;9.768;2024-03-08T05:01:52;99797.94;;;4.72;48.05
38780;BME280;29273;49.962;9.768;2024-03-08T05:04:18;99800.56;;;4.72;48.09
38780;BME280;29273;49.962;9.768;2024-03-08T05:06:44;99797.13;;;4.72;48.32
38780;BME280;29273;49.962;9.768;2024-03-08T05:09:09;99797.13;;;4.72;48.28
38780;BME280;29273;49.962;9.768;2024-03-08T05:11:42;99797.94;;;4.72;48.16
38780;BME280;29273;49.962;9.768;2024-03-08T05:14:12;99800.72;;;4.71;48.20
38780;BME280;29273;49.962;9.768;2024-03-08T05:16:43;99806.63;;;4.73;48.07
38780;BME280;29273;49.962;9.768;2024-03-08T05:19:08;99799.28;;;4.68;48.23
38780;BME280;29273;49.962;9.768;2024-03-08T05:21:34;99794.19;;;4.67;48.12
38780;BME280;29273;49.962;9.768;2024-03-08T05:23:59;99797.13;;;4.63;48.13
38780;BME280;29273;49.962;9.768;2024-03-08T05:26:24;99794.66;;;4.62;48.14
38780;BME280;29273;49.962;9.768;2024-03-08T05:28:50;99789.59;;;4.60;48.32
38780;BME280;29273;49.962;9.768;2024-03-08T05:31:21;99790.06;;;4.64;47.79
38780;BME280;29273;49.962;9.768;2024-03-08T05:33:48;99788.09;;;4.58;48.49
38780;BME280;29273;49.962;9.768;2024-03-08T05:36:14;99800.22;;;4.59;48.48
38780;BME280;29273;49.962;9.768;2024-03-08T05:38:40;99792.53;;;4.57;48.62
38780;BME280;29273;49.962;9.768;2024-03-08T05:41:07;99794.34;;;4.57;48.80
38780;BME280;29273;49.962;9.768;2024-03-08T05:43:33;99785.47;;;4.58;48.74
38780;BME280;29273;49.962;9.768;2024-03-08T05:45:58;99789.09;;;4.57;48.63
38780;BME280;29273;49.962;9.768;2024-03-08T05:48:24;99777.78;;;4.56;48.50
38780;BME280;29273;49.962;9.768;2024-03-08T05:50:50;99782.19;;;4.56;48.46
38780;BME280;29273;49.962;9.768;2024-03-08T05:53:16;99781.53;;;4.54;48.62
38780;BME280;29273;49.962;9.768;2024-03-08T05:55:41;99788.75;;;4.52;48.69
38780;BME280;29273;49.962;9.768;2024-03-08T05:58:07;99783.69;;;4.50;48.95
38780;BME280;29273;49.962;9.768;2024-03-08T06:00:34;99788.75;;;4.52;48.83
38780;BME280;29273;49.962;9.768;2024-03-08T06:03:01;99778.44;;;4.50;48.98
38780;BME280;29273;49.962;9.768;2024-03-08T06:05:27;99779.25;;;4.51;48.95
38780;BME280;29273;49.962;9.768;2024-03-08T06:07:53;99779.25;;;4.51;48.73
38780;BME280;29273;49.962;9.768;2024-03-08T06:10:18;99776.63;;;4.51;48.89
38780;BME280;29273;49.962;9.768;2024-03-08T06:12:44;99771.53;;;4.49;48.98
38780;BME280;29273;49.962;9.768;2024-03-08T06:15:10;99775.00;;;4.50;49.11
38780;BME280;29273;49.962;9.768;2024-03-08T06:17:40;99774.16;;;4.49;49.06
38780;BME280;29273;49.962;9.768;2024-03-08T06:20:06;99778.28;;;4.52;49.08
38780;BME280;29273;49.962;9.768;2024-03-08T06:22:39;99779.56;;;4.56;48.85
38780;BME280;29273;49.962;9.768;2024-03-08T06:25:09;99768.59;;;4.52;49.17
38780;BME280;29273;49.962;9.768;2024-03-08T06:27:41;99775.81;;;4.50;49.12
38780;BME280;29273;49.962;9.768;2024-03-08T06:30:08;99771.22;;;4.52;49.07
38780;BME280;29273;49.962;9.768;2024-03-08T06:32:38;99771.88;;;4.54;49.08
38780;BME280;29273;49.962;9.768;2024-03-08T06:35:04;99772.19;;;4.51;49.72
38780;BME280;29273;49.962;9.768;2024-03-08T06:37:33;99774.66;;;4.53;49.75
38780;BME280;29273;49.962;9.768;2024-03-08T06:39:59;99773.53;;;4.55;49.71
38780;BME280;29273;49.962;9.768;2024-03-08T06:42:29;99777.59;;;4.58;49.94
38780;BME280;29273;49.962;9.768;2024-03-08T06:44:59;99780.75;;;4.61;49.91
38780;BME280;29273;49.962;9.768;2024-03-08T06:47:29;99785.63;;;4.64;49.99
38780;BME280;29273;49.962;9.768;2024-03-08T06:49:55;99781.88;;;4.67;50.02
38780;BME280;29273;49.962;9.768;2024-03-08T06:52:20;99778.94;;;4.70;50.00
38780;BME280;29273;49.962;9.768;2024-03-08T06:54:47;99774.97;;;4.74;50.16
38780;BME280;29273;49.962;9.768;2024-03-08T06:57:13;99773.84;;;4.77;50.07
38780;BME280;29273;49.962;9.768;2024-03-08T06:59:39;99779.59;;;4.80;50.28
38780;BME280;29273;49.962;9.768;2024-03-08T07:02:05;99777.44;;;4.84;50.05
38780;BME280;29273;49.962;9.768;2024-03-08T07:04:34;99768.44;;;4.87;50.41
38780;BME280;29273;49.962;9.768;2024-03-08T07:07:06;99769.25;;;4.95;50.05
38780;BME280;29273;49.962;9.768;2024-03-08T07:09:35;99765.81;;;4.95;50.29
38780;BME280;29273;49.962;9.768;2024-03-08T07:12:01;99761.03;;;4.98;50.21
38780;BME280;29273;49.962;9.768;2024-03-08T07:14:27;99766.78;;;5.02;50.14
38780;BME280;29273;49.962;9.768;2024-03-08T07:16:52;99764.78;;;5.04;50.22
38780;BME280;29273;49.962;9.768;2024-03-08T07:19:18;99763.50;;;5.08;50.30
38780;BME280;29273;49.962;9.768;2024-03-08T07:21:44;99757.72;;;5.13;50.52
38780;BME280;29273;49.962;9.768;2024-03-08T07:24:13;99758.22;;;5.16;50.49
38780;BME280;29273;49.962;9.768;2024-03-08T07:26:42;99758.69;;;5.20;50.36
38780;BME280;29273;49.962;9.768;2024-03-08T07:29:08;99756.38;;;5.25;50.38
38780;BME280;29273;49.962;9.768;2024-03-08T07:31:33;99754.25;;;5.29;50.15
38780;BME280;29273;49.962;9.768;2024-03-08T07:34:18;99749.47;;;5.32;50.50
38780;BME280;29273;49.962;9.768;2024-03-08T07:36:43;99747.31;;;5.36;50.41
38780;BME280;29273;49.962;9.768;2024-03-08T07:39:08;99754.69;;;5.41;50.48
38780;BME280;29273;49.962;9.768;2024-03-08T07:41:40;99744.97;;;5.49;50.02
38780;BME280;29273;49.962;9.768;2024-03-08T07:44:06;99741.38;;;5.50;50.54
38780;BME280;29273;49.962;9.768;2024-03-08T07:46:32;99733.16;;;5.53;50.50
38780;BME280;29273;49.962;9.768;2024-03-08T07:48:59;99732.81;;;5.56;50.47
38780;BME280;29273;49.962;9.768;2024-03-08T07:51:25;99728.69;;;5.62;50.17
38780;BME280;29273;49.962;9.768;2024-03-08T07:53:51;99722.91;;;5.67;50.38
38780;BME280;29273;49.962;9.768;2024-03-08T07:56:16;99723.38;;;5.70;50.14
38780;BME280;29273;49.962;9.768;2024-03-08T07:58:44;99718.59;;;5.74;50.45
38780;BME280;29273;49.962;9.768;2024-03-08T08:01:19;99704.59;;;5.82;49.94
38780;BME280;29273;49.962;9.768;2024-03-08T08:03:45;99711.69;;;5.81;50.54
38780;BME280;29273;49.962;9.768;2024-03-08T08:06:11;99708.50;;;5.86;50.66
38780;BME280;29273;49.962;9.768;2024-03-08T08:08:44;99699.59;;;5.95;50.31
38780;BME280;29273;49.962;9.768;2024-03-08T08:11:10;99700.09;;;5.99;50.47
38780;BME280;29273;49.962;9.768;2024-03-08T08:13:41;99695.31;;;6.02;50.61
38780;BME280;29273;49.962;9.768;2024-03-08T08:16:07;99689.53;;;6.07;50.33
38780;BME280;29273;49.962;9.768;2024-03-08T08:18:33;99679.66;;;6.09;50.27
38780;BME280;29273;49.962;9.768;2024-03-08T08:20:59;99683.56;;;6.13;50.29
38780;BME280;29273;49.962;9.768;2024-03-08T08:23:25;99689.13;;;6.18;50.25
38780;BME280;29273;49.962;9.768;2024-03-08T08:25:51;99679.88;;;6.22;50.33
38780;BME280;29273;49.962;9.768;2024-03-08T08:28:17;99677.69;;;6.26;50.21
38780;BME280;29273;49.962;9.768;2024-03-08T08:30:46;99665.84;;;6.30;50.19
38780;BME280;29273;49.962;9.768;2024-03-08T08:33:11;99670.75;;;6.33;50.34
38780;BME280;29273;49.962;9.768;2024-03-08T08:35:37;99664.94;;;6.38;50.36
38780;BME280;29273;49.962;9.768;2024-03-08T08:38:06;99666.06;;;6.43;50.44
38780;BME280;29273;49.962;9.768;2024-03-08T08:40:35;99665.72;;;6.46;50.25
38780;BME280;29273;49.962;9.768;2024-03-08T08:43:03;99658.28;;;6.50;50.44
38780;BME280;29273;49.962;9.768;2024-03-08T08:45:32;99656.72;;;6.56;50.26
38780;BME280;29273;49.962;9.768;2024-03-08T08:47:58;99653.56;;;6.60;50.38
38780;BME280;29273;49.962;9.768;2024-03-08T08:50:27;99654.88;;;6.64;50.30
38780;BME280;29273;49.962;9.768;2024-03-08T08:52:54;99650.69;;;6.70;50.33
38780;BME280;29273;49.962;9.768;2024-03-08T08:55:19;99644.44;;;6.71;50.26
38780;BME280;29273;49.962;9.768;2024-03-08T08:57:51;99647.34;;;6.76;50.26
38780;BME280;29273;49.962;9.768;2024-03-08T09:00:20;99640.69;;;6.80;50.28
38780;BME280;29273;49.962;9.768;2024-03-08T09:02:47;99629.81;;;6.83;50.27
38780;BME280;29273;49.962;9.768;2024-03-08T09:05:13;99623.19;;;6.88;50.04
38780;BME280;29273;49.962;9.768;2024-03-08T09:07:43;99631.16;;;6.94;50.14
38780;BME280;29273;49.962;9.768;2024-03-08T09:10:09;99622.09;;;6.97;50.26
38780;BME280;29273;49.962;9.768;2024-03-08T09:12:40;99615.44;;;7.01;50.10
38780;BME280;29273;49.962;9.768;2024-03-08T09:15:06;99613.13;;;7.06;50.21
38780;BME280;29273;49.962;9.768;2024-03-08T09:17:37;99612.53;;;7.11;50.03
38780;BME280;29273;49.962;9.768;2024-03-08T09:20:06;99606.53;;;7.17;50.06
38780;BME280;29273;49.962;9.768;2024-03-08T09:22:32;99603.53;;;7.20;50.07
38780;BME280;29273;49.962;9.768;2024-03-08T09:24:57;99601.97;;;7.26;49.95
38780;BME280;29273;49.962;9.768;2024-03-08T09:27:23;99605.72;;;7.31;50.12
38780;BME280;29273;49.962;9.768;2024-03-08T09:29:49;99604.16;;;7.37;49.90
38780;BME280;29273;49.962;9.768;2024-03-08T09:32:14;99599.31;;;7.40;49.91
38780;BME280;29273;49.962;9.768;2024-03-08T09:34:40;99596.75;;;7.47;49.75
38780;BME280;29273;49.962;9.768;2024-03-08T09:37:06;99594.56;;;7.51;49.79
38780;BME280;29273;49.962;9.768;2024-03-08T09:39:31;99587.31;;;7.53;49.62
38780;BME280;29273;49.962;9.768;2024-03-08T09:41:59;99596.09;;;7.60;49.75
38780;BME280;29273;49.962;9.768;2024-03-08T09:44:24;99587.44;;;7.66;49.47
38780;BME280;29273;49.962;9.768;2024-03-08T09:46:50;99576.50;;;7.69;49.67
38780;BME280;29273;49.962;9.768;2024-03-08T09:49:19;99577.56;;;7.75;49.91
38780;BME280;29273;49.962;9.768;2024-03-08T09:51:44;99565.81;;;7.77;49.59
38780;BME280;29273;49.962;9.768;2024-03-08T09:54:11;99565.25;;;7.82;49.24
38780;BME280;29273;49.962;9.768;2024-03-08T09:56:39;99559.25;;;7.88;49.22
38780;BME280;29273;49.962;9.768;2024-03-08T09:59:09;99558.03;;;7.91;49.40
38780;BME280;29273;49.962;9.768;2024-03-08T10:01:35;99550.56;;;7.94;49.48
38780;BME280;29273;49.962;9.768;2024-03-08T10:04:02;99551.44;;;8.02;49.30
38780;BME280;29273;49.962;9.768;2024-03-08T10:06:27;99543.16;;;8.05;49.50
38780;BME280;29273;49.962;9.768;2024-03-08T10:08:53;99539.94;;;8.09;49.58
38780;BME280;29273;49.962;9.768;2024-03-08T10:11:18;99537.53;;;8.14;49.28
38780;BME280;29273;49.962;9.768;2024-03-08T10:13:44;99542.84;;;8.21;49.10
38780;BME280;29273;49.962;9.768;2024-03-08T10:16:12;99538.81;;;8.25;48.90
38780;BME280;29273;49.962;9.768;2024-03-08T10:18:37;99522.41;;;8.30;48.99
38780;BME280;29273;49.962;9.768;2024-03-08T10:21:08;99524.72;;;8.40;48.74
38780;BME280;29273;49.962;9.768;2024-03-08T10:23:36;99524.72;;;8.40;48.85
38780;BME280;29273;49.962;9.768;2024-03-08T10:26:17;99528.03;;;8.48;48.97
38780;BME280;29273;49.962;9.768;2024-03-08T10:28:47;99523.59;;;8.56;48.95
38780;BME280;29273;49.962;9.768;2024-03-08T10:31:13;99514.28;;;8.60;48.66
38780;BME280;29273;49.962;9.768;2024-03-08T10:33:40;99512.47;;;8.67;48.80
38780;BME280;29273;49.962;9.768;2024-03-08T10:36:10;99514.56;;;8.78;49.03
38780;BME280;29273;49.962;9.768;2024-03-08T10:38:37;99503.63;;;8.81;48.56
38780;BME280;29273;49.962;9.768;2024-03-08T10:41:10;99505.69;;;8.93;48.42
38780;BME280;29273;49.962;9.768;2024-03-08T10:48:49;99493.13;;;9.01;47.88
38780;BME280;29273;49.962;9.768;2024-03-08T10:51:15;99495.56;;;9.10;47.46
38780;BME280;29273;49.962;9.768;2024-03-08T10:53:41;99488.06;;;9.13;47.70
38780;BME280;29273;49.962;9.768;2024-03-08T10:56:08;99490.53;;;9.21;47.80
38780;BME280;29273;49.962;9.768;2024-03-08T10:58:36;99494.78;;;9.29;47.65
38780;BME280;29273;49.962;9.768;2024-03-08T11:01:02;99484.44;;;9.34;47.53
38780;BME280;29273;49.962;9.768;2024-03-08T11:06:14;99479.78;;;9.56;47.77
38780;BME280;29273;49.962;9.768;2024-03-08T11:08:40;99476.31;;;9.56;46.37
38780;BME280;29273;49.962;9.768;2024-03-08T11:11:26;99476.09;;;9.64;46.00
38780;BME280;29273;49.962;9.768;2024-03-08T11:14:01;99469.22;;;9.70;46.28
38780;BME280;29273;49.962;9.768;2024-03-08T11:19:00;99467.75;;;9.87;46.90
38780;BME280;29273;49.962;9.768;2024-03-08T11:21:33;99455.97;;;9.90;46.60
38780;BME280;29273;49.962;9.768;2024-03-08T11:24:00;99453.13;;;9.91;46.11
38780;BME280;29273;49.962;9.768;2024-03-08T11:26:25;99444.78;;;9.94;45.97
38780;BME280;29273;49.962;9.768;2024-03-08T11:28:51;99447.63;;;9.99;46.69
38780;BME280;29273;49.962;9.768;2024-03-08T11:33:47;99441.28;;;10.07;46.26
38780;BME280;29273;49.962;9.768;2024-03-08T11:36:21;99427.41;;;10.18;46.94
38780;BME280;29273;49.962;9.768;2024-03-08T11:38:48;99434.53;;;10.18;45.73
38780;BME280;29273;49.962;9.768;2024-03-08T11:41:15;99433.94;;;10.23;45.83
38780;BME280;29273;49.962;9.768;2024-03-08T11:43:40;99430.84;;;10.26;45.48
38780;BME280;29273;49.962;9.768;2024-03-08T11:46:10;99432.69;;;10.32;46.27
38780;BME280;29273;49.962;9.768;2024-03-08T11:48:39;99424.13;;;10.36;45.61
38780;BME280;29273;49.962;9.768;2024-03-08T11:51:07;99417.59;;;10.39;46.22
38780;BME280;29273;49.962;9.768;2024-03-08T11:53:33;99410.88;;;10.43;45.40
38780;BME280;29273;49.962;9.768;2024-03-08T11:56:09;99407.78;;;10.53;46.20
38780;BME280;29273;49.962;9.768;2024-03-08T11:58:36;99410.03;;;10.49;44.91
38780;BME280;29273;49.962;9.768;2024-03-08T12:01:07;99399.78;;;10.60;46.17
38780;BME280;29273;49.962;9.768;2024-03-08T12:03:33;99395.72;;;10.57;45.17
38780;BME280;29273;49.962;9.768;2024-03-08T12:06:03;99383.09;;;10.59;45.08
38780;BME280;29273;49.962;9.768;2024-03-08T12:08:32;99389.75;;;10.68;45.60
38780;BME280;29273;49.962;9.768;2024-03-08T12:10:57;99382.81;;;10.67;44.60
38780;BME280;29273;49.962;9.768;2024-03-08T12:13:33;99372.81;;;10.76;45.72
38780;BME280;29273;49.962;9.768;2024-03-08T12:16:01;99375.69;;;10.74;44.64
38780;BME280;29273;49.962;9.768;2024-03-08T12:18:29;99371.78;;;10.77;44.64
38780;BME280;29273;49.962;9.768;2024-03-08T12:21:10;99369.47;;;10.87;45.56
38780;BME280;29273;49.962;9.768;2024-03-08T12:23:36;99362.78;;;10.85;43.98
38780;BME280;29273;49.962;9.768;2024-03-08T12:26:24;99361.94;;;10.91;44.45
38780;BME280;29273;49.962;9.768;2024-03-08T12:28:51;99357.81;;;10.95;43.90
38780;BME280;29273;49.962;9.768;2024-03-08T12:31:18;99351.88;;;11.00;44.45
38780;BME280;29273;49.962;9.768;2024-03-08T12:33:54;99346.88;;;11.10;45.34
38780;BME280;29273;49.962;9.768;2024-03-08T12:36:20;99342.59;;;11.09;43.97
38780;BME280;29273;49.962;9.768;2024-03-08T12:38:46;99341.16;;;11.13;43.48
38780;BME280;29273;49.962;9.768;2024-03-08T12:41:19;99336.75;;;11.25;44.60
38780;BME280;29273;49.962;9.768;2024-03-08T12:43:45;99323.50;;;11.25;43.82
38780;BME280;29273;49.962;9.768;2024-03-08T12:46:17;99321.16;;;11.36;44.11
38780;BME280;29273;49.962;9.768;2024-03-08T12:48:45;99323.22;;;11.34;43.39
38780;BME280;29273;49.962;9.768;2024-03-08T12:51:13;99318.09;;;11.39;43.63
38780;BME280;29273;49.962;9.768;2024-03-08T12:53:38;99309.69;;;11.42;42.51
38780;BME280;29273;49.962;9.768;2024-03-08T12:56:06;99312.06;;;11.50;42.67
38780;BME280;29273;49.962;9.768;2024-03-08T12:58:34;99310.16;;;11.57;42.53
38780;BME280;29273;49.962;9.768;2024-03-08T13:01:05;99309.72;;;11.60;42.24
38780;BME280;29273;49.962;9.768;2024-03-08T13:03:33;99293.94;;;11.65;42.46
38780;BME280;29273;49.962;9.768;2024-03-08T13:06:04;99297.56;;;11.71;41.87
38780;BME280;29273;49.962;9.768;2024-03-08T13:08:37;99297.63;;;11.83;43.23
38780;BME280;29273;49.962;9.768;2024-03-08T13:11:06;99289.31;;;11.79;41.22
38780;BME280;29273;49.962;9.768;2024-03-08T13:13:37;99279.44;;;11.87;41.74
38780;BME280;29273;49.962;9.768;2024-03-08T13:16:05;99277.75;;;11.92;41.22
38780;BME280;29273;49.962;9.768;2024-03-08T13:18:34;99272.59;;;11.97;41.09
38780;BME280;29273;49.962;9.768;2024-03-08T13:20:59;99267.66;;;12.01;40.70
38780;BME280;29273;49.962;9.768;2024-03-08T13:23:30;99270.00;;;12.09;41.51